Time;durP1;ratioP1;P1;durP2;ratioP2;P2;SDS_P1;SDS_P2;PMS_P1;PMS_P2;Temp;Humidity;BMP_temperature;BMP_pressure;BME280_temperature;BME280_humidity;BME280_pressure;Samples;Min_cycle;Max_cycle;Signal;HPM_P1;HPM_P2
2021/10/07 00:02:19;;;;;;;18.13;4.45;;;;;;;9.58;80.60;99525.03;5051675;28;20451;-53
2021/10/07 00:04:45;;;;;;;21.02;5.13;;;;;;;9.66;81.20;99522.38;5050400;28;20116;-53
2021/10/07 00:07:11;;;;;;;10.18;3.60;;;;;;;9.72;81.55;99510.38;5051678;28;20025;-53
2021/10/07 00:09:38;;;;;;;6.50;3.25;;;;;;;9.75;81.79;99502.97;5050345;28;20033;-53
2021/10/07 00:12:06;;;;;;;8.65;3.78;;;;;;;9.79;79.75;99506.06;5051607;28;20053;-53
2021/10/07 00:14:34;;;;;;;13.02;5.05;;;;;;;9.63;77.99;99512.22;5051609;28;20562;-53
2021/10/07 00:17:00;;;;;;;9.23;4.35;;;;;;;9.55;78.70;99507.03;5051606;28;20021;-53
2021/10/07 00:19:26;;;;;;;20.77;11.57;;;;;;;9.49;79.22;99508.53;5051554;28;20021;-53
2021/10/07 00:21:51;;;;;;;12.55;3.47;;;;;;;9.52;77.61;99515.25;5051561;28;20040;-53
2021/10/07 00:24:17;;;;;;;7.43;4.30;;;;;;;9.43;78.33;99513.66;5050348;28;20403;-53
2021/10/07 00:26:47;;;;;;;11.10;3.63;;;;;;;9.40;78.94;99502.53;5051523;28;20021;-53
2021/10/07 00:31:48;;;;;;;6.53;4.00;;;;;;;9.12;77.94;99514.47;5055624;28;20047;-53
2021/10/07 00:37:22;;;;;;;7.10;3.33;;;;;;;9.29;78.65;99515.19;5046787;28;20052;-53
2021/10/07 00:39:48;;;;;;;10.57;5.10;;;;;;;9.45;78.17;99512.50;5055349;28;20287;-53
2021/10/07 00:42:14;;;;;;;10.15;4.28;;;;;;;9.60;77.02;99515.19;5054039;28;20108;-53
2021/10/07 00:44:41;;;;;;;12.13;5.60;;;;;;;9.83;76.89;99514.41;5054022;28;20025;-53
2021/10/07 00:47:07;;;;;;;11.57;4.00;;;;;;;10.01;77.39;99514.91;5054003;28;20070;-53
2021/10/07 00:49:35;;;;;;;6.68;2.70;;;;;;;9.92;75.88;99513.31;5053898;28;20031;-53
2021/10/07 00:52:02;;;;;;;5.03;2.47;;;;;;;9.87;74.97;99515.69;5055223;28;20056;-53
2021/10/07 00:54:28;;;;;;;10.63;4.63;;;;;;;9.69;76.00;99508.91;5055133;28;20025;-53
2021/10/07 00:56:56;;;;;;;6.38;2.80;;;;;;;9.47;76.96;99512.31;5053840;28;20025;-53
2021/10/07 00:59:22;;;;;;;9.13;4.57;;;;;;;9.23;77.13;99511.44;5054954;28;20491;-53
2021/10/07 01:01:48;;;;;;;12.57;6.22;;;;;;;9.09;79.01;99506.94;5053670;28;20067;-53
2021/10/07 01:04:14;;;;;;;8.95;2.83;;;;;;;9.08;79.70;99508.75;5054967;28;20117;-53
2021/10/07 01:06:43;;;;;;;7.60;3.45;;;;;;;9.12;79.80;99507.41;5053628;28;20051;-53
2021/10/07 01:09:09;;;;;;;13.43;3.80;;;;;;;9.35;80.10;99509.28;5054898;28;20029;-53
2021/10/07 01:11:35;;;;;;;15.75;5.75;;;;;;;9.77;80.61;99508.03;5054790;28;20029;-53
2021/10/07 01:14:02;;;;;;;3.85;2.65;;;;;;;10.08;78.15;99504.50;5054866;28;20030;-53
2021/10/07 01:16:28;;;;;;;7.50;2.55;;;;;;;10.08;77.92;99500.09;5053449;28;20403;-53
2021/10/07 01:18:54;;;;;;;14.27;3.03;;;;;;;10.10;78.43;99498.13;5053365;28;20029;-53
2021/10/07 01:21:21;;;;;;;10.00;2.75;;;;;;;10.14;79.07;99491.53;5053320;28;20021;-53
2021/10/07 01:23:49;;;;;;;10.82;4.82;;;;;;;10.11;78.75;99489.25;5054680;28;20021;-53
2021/10/07 01:26:18;;;;;;;10.23;6.15;;;;;;;10.02;78.19;99484.25;5054598;28;20021;-53
2021/10/07 01:28:48;;;;;;;8.35;7.03;;;;;;;9.99;79.22;99478.38;5053001;28;20185;-53
2021/10/07 01:31:15;;;;;;;9.38;3.90;;;;;;;10.02;79.84;99471.13;5054556;28;20037;-53
2021/10/07 01:33:40;;;;;;;12.20;4.40;;;;;;;9.99;80.17;99467.06;5054455;28;20017;-53
2021/10/07 01:36:07;;;;;;;11.93;3.38;;;;;;;9.98;81.07;99462.84;5053089;28;20023;-53
2021/10/07 01:38:36;;;;;;;17.05;5.10;;;;;;;10.16;81.72;99462.47;5054405;28;20025;-53
2021/10/07 01:41:02;;;;;;;13.73;3.58;;;;;;;10.30;81.49;99463.53;5053884;28;20021;-53
2021/10/07 01:43:28;;;;;;;13.05;2.90;;;;;;;10.22;81.01;99466.19;5052933;28;20057;-53
2021/10/07 01:45:54;;;;;;;10.60;2.95;;;;;;;10.14;81.53;99454.81;5052898;28;20104;-53
2021/10/07 01:48:20;;;;;;;6.95;2.40;;;;;;;10.17;81.47;99464.94;5054184;28;20025;-53
2021/10/07 01:50:46;;;;;;;8.80;2.60;;;;;;;10.10;81.11;99469.28;5054147;28;20036;-53
2021/10/07 01:53:12;;;;;;;20.33;3.08;;;;;;;9.95;81.12;99465.78;5054107;28;20029;-53
2021/10/07 01:55:38;;;;;;;9.95;3.42;;;;;;;9.83;81.23;99467.19;5052739;28;20120;-53
2021/10/07 01:58:04;;;;;;;7.40;3.40;;;;;;;9.67;80.21;99462.91;5054018;28;20402;-53
2021/10/07 02:00:30;;;;;;;7.57;2.75;;;;;;;9.54;80.83;99458.25;5052542;28;20418;-53
2021/10/07 02:02:57;;;;;;;12.75;3.47;;;;;;;9.46;80.79;99456.50;5052613;28;20044;-53
2021/10/07 02:05:22;;;;;;;12.00;3.90;;;;;;;9.44;81.50;99453.22;5053779;28;20061;-53
2021/10/07 02:07:48;;;;;;;12.60;4.85;;;;;;;9.39;80.98;99453.72;5052494;28;20507;-53
2021/10/07 02:10:15;;;;;;;32.20;5.05;;;;;;;9.31;81.67;99453.78;5053746;28;20487;-53
2021/10/07 02:12:46;;;;;;;13.10;3.75;;;;;;;9.38;82.21;99457.34;5053671;28;20052;-53
2021/10/07 02:15:13;;;;;;;10.25;3.40;;;;;;;9.42;82.41;99459.63;5053655;28;20096;-53
2021/10/07 02:17:39;;;;;;;7.68;3.10;;;;;;;9.43;82.15;99456.81;5053599;28;20024;-53
2021/10/07 02:20:08;;;;;;;7.70;2.88;;;;;;;9.39;82.19;99452.94;5052166;28;20431;-53
2021/10/07 02:22:34;;;;;;;13.85;3.30;;;;;;;9.40;82.29;99458.00;5052202;28;20047;-53
2021/10/07 02:25:00;;;;;;;7.03;2.67;;;;;;;9.56;83.39;99449.22;5053501;28;20506;-53
2021/10/07 02:27:26;;;;;;;18.77;9.68;;;;;;;9.87;83.60;99445.69;5052063;28;20021;-53
2021/10/07 02:29:52;;;;;;;7.78;3.65;;;;;;;10.17;83.51;99436.06;5052781;28;20059;-53
2021/10/07 02:32:18;;;;;;;18.38;3.17;;;;;;;10.48;83.03;99435.13;5053311;28;20029;-53
2021/10/07 02:34:44;;;;;;;15.65;3.03;;;;;;;10.88;82.47;99422.50;5052295;28;20110;-53
2021/10/07 02:37:10;;;;;;;16.08;5.20;;;;;;;11.08;81.48;99428.00;5053230;28;20025;-53
2021/10/07 02:39:38;;;;;;;11.57;4.93;;;;;;;11.25;81.40;99444.38;5051848;28;20021;-53
2021/10/07 02:42:04;;;;;;;8.48;3.28;;;;;;;11.30;81.04;99431.47;5053163;28;20095;-53
2021/10/07 02:44:30;;;;;;;22.23;18.77;;;;;;;11.30;81.28;99438.53;5051782;28;20064;-53
2021/10/07 02:46:56;;;;;;;8.27;3.30;;;;;;;11.31;80.90;99429.69;5053275;28;20033;-53
2021/10/07 02:49:22;;;;;;;13.13;2.40;;;;;;;11.37;80.86;99435.00;5051694;28;20021;-52
2021/10/07 02:51:48;;;;;;;11.43;3.47;;;;;;;11.49;80.57;99440.56;5052096;28;20065;-53
2021/10/07 02:54:13;;;;;;;11.40;2.72;;;;;;;11.52;79.93;99434.13;5051548;28;20031;-52
2021/10/07 02:56:39;;;;;;;11.00;2.58;;;;;;;11.49;79.64;99442.38;5051542;28;20027;-53
2021/10/07 02:59:05;;;;;;;6.28;1.92;;;;;;;11.39;80.47;99440.06;5051451;28;20025;-53
2021/10/07 03:01:30;;;;;;;15.35;2.78;;;;;;;11.39;80.70;99443.50;5051450;28;20022;-53
2021/10/07 03:03:56;;;;;;;10.60;2.28;;;;;;;11.50;80.54;99444.00;5052754;28;20100;-53
2021/10/07 03:06:22;;;;;;;21.48;5.20;;;;;;;11.62;80.17;99433.81;5052669;28;20021;-53
2021/10/07 03:08:48;;;;;;;18.92;3.20;;;;;;;11.79;79.83;99436.00;5051406;28;20045;-53
2021/10/07 03:11:15;;;;;;;21.10;4.38;;;;;;;11.95;79.65;99434.94;5052569;28;20395;-54
2021/10/07 03:13:40;;;;;;;20.08;5.07;;;;;;;12.04;78.43;99427.72;5052548;28;20021;-53
2021/10/07 03:16:06;;;;;;;12.85;3.05;;;;;;;12.10;78.68;99426.94;5052494;28;20025;-54
2021/10/07 03:18:32;;;;;;;9.98;2.65;;;;;;;11.99;77.98;99435.34;5052466;28;20029;-53
2021/10/07 03:20:57;;;;;;;16.65;9.40;;;;;;;12.07;77.99;99432.56;5052339;28;20078;-53
2021/10/07 03:23:24;;;;;;;52.08;40.03;;;;;;;12.14;78.08;99435.28;5051083;28;20053;-53
2021/10/07 03:25:49;;;;;;;18.73;11.85;;;;;;;12.15;77.92;99429.81;5052320;28;20028;-54
2021/10/07 03:28:15;;;;;;;9.30;3.42;;;;;;;12.18;77.37;99437.31;5052260;28;20029;-54
2021/10/07 03:30:41;;;;;;;7.95;3.53;;;;;;;12.28;77.12;99438.81;5052018;28;20041;-54
2021/10/07 03:33:09;;;;;;;13.02;4.13;;;;;;;12.37;76.54;99438.47;5050944;28;20017;-53
2021/10/07 03:35:35;;;;;;;10.52;2.20;;;;;;;12.45;77.03;99429.56;5050836;28;20495;-53
2021/10/07 03:38:02;;;;;;;12.13;3.20;;;;;;;12.47;77.55;99435.47;5052137;28;20021;-53
2021/10/07 03:40:28;;;;;;;12.15;3.85;;;;;;;12.43;77.33;99431.59;5052043;28;20020;-53
2021/10/07 03:42:55;;;;;;;11.32;3.22;;;;;;;12.31;77.69;99433.94;5050792;28;20021;-53
2021/10/07 03:45:21;;;;;;;13.70;2.95;;;;;;;12.09;77.68;99424.50;5050657;28;20032;-53
2021/10/07 03:47:47;;;;;;;16.70;4.20;;;;;;;11.91;78.10;99432.84;5052027;28;20155;-54
2021/10/07 03:50:13;;;;;;;12.68;2.55;;;;;;;11.78;78.85;99431.72;5051880;28;20029;-53
2021/10/07 03:52:39;;;;;;;10.32;2.60;;;;;;;11.77;79.04;99430.09;5050586;28;20395;-53
2021/10/07 03:55:05;;;;;;;13.73;4.80;;;;;;;11.86;78.79;99430.78;5050546;28;20107;-53
2021/10/07 03:57:31;;;;;;;27.48;4.55;;;;;;;12.05;78.55;99426.69;5050528;28;20399;-53
2021/10/07 03:59:56;;;;;;;13.98;3.25;;;;;;;12.18;77.78;99426.78;5050427;28;20028;-53
2021/10/07 04:02:23;;;;;;;17.73;4.57;;;;;;;12.23;76.85;99428.03;5050446;28;20047;-53
2021/10/07 04:04:50;;;;;;;10.93;2.22;;;;;;;12.25;76.06;99434.72;5050283;28;20032;-53
2021/10/07 04:07:16;;;;;;;12.90;2.63;;;;;;;12.24;75.25;99422.59;5050904;28;20078;-54
2021/10/07 04:09:42;;;;;;;6.50;2.00;;;;;;;12.37;75.65;99413.94;5050394;28;20491;-53
2021/10/07 04:12:08;;;;;;;9.45;2.60;;;;;;;12.30;75.21;99428.91;5051679;28;20079;-53
2021/10/07 04:14:34;;;;;;;12.07;2.65;;;;;;;12.26;75.98;99422.41;5050328;28;20029;-53
2021/10/07 04:16:59;;;;;;;9.55;2.20;;;;;;;12.17;75.85;99421.72;5051638;28;20578;-53
2021/10/07 04:19:25;;;;;;;8.18;2.35;;;;;;;12.06;75.88;99430.97;5051490;28;20101;-53
2021/10/07 04:21:51;;;;;;;12.65;3.03;;;;;;;12.00;76.79;99429.09;5051571;28;20025;-53
2021/10/07 04:24:17;;;;;;;15.98;2.72;;;;;;;12.07;76.63;99423.88;5050245;28;20430;-53
2021/10/07 04:26:42;;;;;;;12.35;2.78;;;;;;;12.14;77.58;99425.56;5050250;28;20021;-53
2021/10/07 04:29:08;;;;;;;17.15;8.02;;;;;;;12.25;76.55;99423.38;5049908;28;20045;-53
2021/10/07 04:31:34;;;;;;;11.90;4.45;;;;;;;12.39;76.34;99420.66;5050152;28;20029;-53
2021/10/07 04:34:00;;;;;;;9.43;2.70;;;;;;;12.56;75.92;99425.59;5051490;28;20030;-54
2021/10/07 04:36:25;;;;;;;9.95;2.72;;;;;;;12.61;75.57;99425.00;5051387;28;20033;-53
2021/10/07 04:38:51;;;;;;;12.65;3.95;;;;;;;12.69;74.94;99430.13;5051395;28;20021;-54
2021/10/07 04:41:17;;;;;;;15.80;3.65;;;;;;;12.70;75.66;99426.47;5051389;28;20076;-54
2021/10/07 04:43:43;;;;;;;10.18;2.72;;;;;;;12.72;74.44;99425.28;5050101;28;20115;-54
2021/10/07 04:46:09;;;;;;;17.60;5.85;;;;;;;12.78;75.22;99428.94;5050028;28;20479;-54
2021/10/07 04:48:35;;;;;;;13.02;3.10;;;;;;;12.69;74.90;99430.91;5051663;28;20029;-53
2021/10/07 04:51:01;;;;;;;15.48;2.80;;;;;;;12.56;75.95;99428.25;5049997;28;20029;-54
2021/10/07 04:53:27;;;;;;;11.45;2.78;;;;;;;12.43;76.35;99415.78;5049967;28;20044;-53
2021/10/07 04:55:55;;;;;;;17.92;5.03;;;;;;;12.38;75.94;99413.75;5051315;28;20033;-54
2021/10/07 04:58:22;;;;;;;17.35;3.88;;;;;;;12.39;75.70;99420.66;5051548;28;20036;-54
2021/10/07 05:00:49;;;;;;;9.73;4.72;;;;;;;12.46;76.25;99425.94;5049836;28;20025;-53
2021/10/07 05:03:14;;;;;;;14.05;2.88;;;;;;;12.37;76.37;99427.09;5049875;28;20104;-53
2021/10/07 05:05:42;;;;;;;11.13;2.30;;;;;;;12.16;76.80;99420.91;5049878;28;20115;-54
2021/10/07 05:08:09;;;;;;;11.25;2.08;;;;;;;11.85;76.76;99425.69;5051158;28;20053;-53
2021/10/07 05:10:35;;;;;;;13.80;4.03;;;;;;;11.50;76.87;99428.22;5051132;28;20103;-53
2021/10/07 05:13:02;;;;;;;13.20;3.25;;;;;;;11.30;77.71;99422.78;5049852;28;20021;-53
2021/10/07 05:15:28;;;;;;;17.23;4.03;;;;;;;11.10;77.95;99433.06;5052407;28;20043;-53
2021/10/07 05:17:54;;;;;;;8.65;2.38;;;;;;;10.90;78.31;99420.50;5054769;28;20021;-53
2021/10/07 05:20:20;;;;;;;17.63;4.90;;;;;;;10.68;78.54;99429.34;5053251;28;20128;-53
2021/10/07 05:22:46;;;;;;;12.98;2.83;;;;;;;10.50;78.61;99424.44;5053415;28;20024;-53
2021/10/07 05:25:12;;;;;;;11.18;2.78;;;;;;;10.37;79.32;99427.72;5054557;28;20024;-54
2021/10/07 05:27:38;;;;;;;6.85;2.28;;;;;;;10.20;79.49;99434.91;5054592;28;20398;-53
2021/10/07 05:30:05;;;;;;;6.25;2.58;;;;;;;10.17;79.62;99430.84;5052931;28;20040;-53
2021/10/07 05:32:31;;;;;;;10.18;3.75;;;;;;;10.17;79.66;99436.06;5054535;28;20429;-53
2021/10/07 05:34:57;;;;;;;8.90;2.95;;;;;;;10.16;79.80;99439.72;5053134;28;20022;-53
2021/10/07 05:37:23;;;;;;;8.95;3.05;;;;;;;10.16;79.27;99434.47;5054423;28;20491;-53
2021/10/07 05:39:49;;;;;;;8.60;2.80;;;;;;;10.12;79.50;99442.84;5054276;28;20024;-53
2021/10/07 05:42:15;;;;;;;10.98;3.10;;;;;;;10.04;80.06;99441.13;5054303;28;20021;-53
2021/10/07 05:44:44;;;;;;;9.00;3.72;;;;;;;10.20;80.47;99438.34;5054287;28;20442;-53
2021/10/07 05:47:13;;;;;;;15.80;3.60;;;;;;;10.25;79.41;99437.81;5052883;28;20564;-53
2021/10/07 05:49:38;;;;;;;13.52;2.92;;;;;;;10.28;79.75;99432.22;5052877;28;20025;-53
2021/10/07 05:52:05;;;;;;;12.48;2.38;;;;;;;10.42;80.08;99440.28;5052744;28;20032;-53
2021/10/07 05:54:31;;;;;;;15.50;3.30;;;;;;;10.56;80.06;99436.84;5054068;28;20021;-53
2021/10/07 05:57:00;;;;;;;8.35;3.05;;;;;;;10.79;80.02;99436.75;5054049;28;20031;-53
2021/10/07 05:59:26;;;;;;;9.93;2.80;;;;;;;11.16;80.41;99437.59;5053931;28;20021;-53
2021/10/07 06:01:52;;;;;;;16.13;2.97;;;;;;;11.86;78.61;99432.59;5052581;28;20391;-53
2021/10/07 06:04:17;;;;;;;23.63;7.85;;;;;;;12.54;76.95;99432.88;5053922;28;20021;-53
2021/10/07 06:06:45;;;;;;;19.13;4.13;;;;;;;13.16;75.19;99439.81;5052543;28;20028;-53
2021/10/07 06:09:12;;;;;;;20.40;3.20;;;;;;;13.74;73.43;99427.97;5053845;28;20070;-53
2021/10/07 06:11:38;;;;;;;20.05;4.18;;;;;;;14.19;71.77;99425.53;5052391;28;20025;-53
2021/10/07 06:14:06;;;;;;;9.85;2.92;;;;;;;14.62;71.14;99416.31;5052397;28;20090;-54
2021/10/07 06:16:33;;;;;;;15.82;3.80;;;;;;;15.09;69.92;99416.91;5052330;28;20035;-54
2021/10/07 06:19:03;;;;;;;17.52;4.05;;;;;;;15.60;68.71;99409.91;5052182;28;20025;-54
2021/10/07 06:21:29;;;;;;;23.55;3.15;;;;;;;15.89;65.91;99408.47;5052256;28;20036;-53
2021/10/07 06:23:55;;;;;;;22.55;5.28;;;;;;;15.83;66.39;99414.63;5053525;28;20017;-53
2021/10/07 06:26:21;;;;;;;22.98;4.40;;;;;;;15.66;65.64;99422.28;5052528;28;20021;-53
2021/10/07 06:28:46;;;;;;;13.73;3.10;;;;;;;15.29;66.02;99411.50;5051403;28;20526;-53
2021/10/07 06:31:15;;;;;;;19.48;2.28;;;;;;;14.85;67.75;99408.72;5053432;28;20114;-52
2021/10/07 06:33:40;;;;;;;18.73;2.50;;;;;;;14.61;68.88;99412.03;5053373;28;20028;-53
2021/10/07 06:36:06;;;;;;;19.25;3.30;;;;;;;14.47;68.49;99419.19;5053277;28;20021;-53
2021/10/07 06:38:32;;;;;;;22.45;3.42;;;;;;;14.42;68.81;99413.69;5053323;28;20029;-53
2021/10/07 06:40:57;;;;;;;21.83;2.78;;;;;;;14.42;69.73;99429.53;5051842;28;20025;-53
2021/10/07 06:43:23;;;;;;;21.42;2.50;;;;;;;14.48;69.37;99428.72;5053206;28;20387;-53
2021/10/07 06:45:51;;;;;;;12.63;2.78;;;;;;;14.46;69.49;99430.75;5053170;28;20052;-53
2021/10/07 06:48:17;;;;;;;14.18;2.70;;;;;;;14.55;69.14;99418.94;5053153;28;20025;-54
2021/10/07 06:50:42;;;;;;;14.45;2.55;;;;;;;14.39;69.04;99425.50;5053050;28;20456;-53
2021/10/07 06:53:12;;;;;;;13.70;2.67;;;;;;;14.50;68.97;99429.31;5053018;28;20082;-53
2021/10/07 06:55:39;;;;;;;7.80;2.95;;;;;;;14.74;68.90;99430.50;5052999;28;20021;-53
2021/10/07 06:58:06;;;;;;;15.32;3.45;;;;;;;14.82;68.29;99417.03;5052877;28;20032;-53
2021/10/07 07:00:32;;;;;;;17.77;2.13;;;;;;;15.34;66.84;99420.44;5051402;28;20025;-53
2021/10/07 07:02:58;;;;;;;16.02;3.58;;;;;;;16.37;64.49;99418.41;5052807;28;20414;-53
2021/10/07 07:05:26;;;;;;;14.07;2.88;;;;;;;17.50;62.26;99418.81;5051438;28;20025;-51
2021/10/07 07:07:52;;;;;;;8.50;2.20;;;;;;;17.92;60.00;99426.78;5052710;28;20043;-51
2021/10/07 07:10:18;;;;;;;16.13;2.30;;;;;;;17.50;59.87;99434.75;5051283;28;20094;-51
2021/10/07 07:12:48;;;;;;;19.50;3.95;;;;;;;17.03;61.84;99434.59;5051300;28;20029;-51
2021/10/07 07:15:15;;;;;;;12.75;2.55;;;;;;;17.00;63.72;99435.03;5052511;28;20499;-51
2021/10/07 07:17:41;;;;;;;16.10;3.03;;;;;;;17.00;63.31;99435.84;5052560;28;20549;-52
2021/10/07 07:20:09;;;;;;;13.15;2.38;;;;;;;16.72;64.00;99444.28;5051063;28;20053;-51
2021/10/07 07:22:35;;;;;;;10.13;2.35;;;;;;;16.69;65.05;99436.81;5051089;28;20028;-52
2021/10/07 07:25:01;;;;;;;7.80;3.03;;;;;;;16.99;64.17;99439.53;5051051;28;20115;-51
2021/10/07 07:27:27;;;;;;;10.15;2.53;;;;;;;18.03;63.34;99443.75;5051041;28;20056;-51
2021/10/07 07:29:54;;;;;;;15.07;2.40;;;;;;;18.75;60.70;99433.63;5052046;28;20072;-51
2021/10/07 07:32:20;;;;;;;20.05;3.70;;;;;;;20.00;58.06;99432.94;5052185;28;20029;-51
2021/10/07 07:34:46;;;;;;;10.40;2.65;;;;;;;21.03;55.52;99421.75;5050928;28;20035;-51
2021/10/07 07:37:11;;;;;;;20.17;4.72;;;;;;;21.83;53.86;99421.13;5052111;28;20147;-52
2021/10/07 07:39:38;;;;;;;12.63;3.20;;;;;;;22.01;52.12;99420.72;5051731;28;20497;-51
2021/10/07 07:42:03;;;;;;;19.35;5.80;;;;;;;22.27;51.77;99420.91;5052089;28;20027;-52
2021/10/07 07:44:29;;;;;;;10.27;5.60;;;;;;;22.53;51.89;99421.84;5050726;28;20116;-51
2021/10/07 07:46:55;;;;;;;9.52;4.63;;;;;;;22.76;50.95;99428.63;5050719;28;20655;-51
2021/10/07 07:49:24;;;;;;;18.25;4.15;;;;;;;22.35;50.52;99425.78;5051943;28;20029;-51
2021/10/07 07:51:50;;;;;;;10.50;2.92;;;;;;;21.77;52.19;99422.16;5051893;28;20524;-51
2021/10/07 07:54:16;;;;;;;10.35;2.58;;;;;;;21.61;53.86;99422.06;5051896;28;20017;-51
2021/10/07 07:56:42;;;;;;;15.98;3.85;;;;;;;21.48;53.31;99422.47;5050563;28;20113;-51
2021/10/07 07:59:09;;;;;;;9.90;2.70;;;;;;;21.09;54.85;99422.59;5051728;28;20511;-52
2021/10/07 08:01:38;;;;;;;10.55;2.13;;;;;;;20.62;55.59;99420.47;5051789;28;20025;-51
2021/10/07 08:04:06;;;;;;;9.50;2.88;;;;;;;20.28;56.46;99431.19;5051761;28;20021;-52
2021/10/07 08:06:36;;;;;;;19.38;4.95;;;;;;;19.62;57.09;99428.28;5051779;28;20021;-52
2021/10/07 08:09:05;;;;;;;6.55;2.65;;;;;;;18.93;58.54;99423.88;5050445;28;20035;-51
2021/10/07 08:11:33;;;;;;;11.90;2.90;;;;;;;18.80;59.78;99424.97;5051574;28;20029;-52
2021/10/07 08:14:03;;;;;;;13.10;2.60;;;;;;;19.75;58.10;99412.84;5051499;28;20032;-51
2021/10/07 08:16:29;;;;;;;9.65;2.58;;;;;;;21.06;56.59;99410.56;5051641;28;20053;-51
2021/10/07 08:18:55;;;;;;;25.88;13.18;;;;;;;22.66;55.03;99404.53;5051483;28;20029;-51
2021/10/07 08:21:21;;;;;;;42.67;35.83;;;;;;;24.00;51.66;99400.94;5051553;28;20025;-51
2021/10/07 08:23:48;;;;;;;14.02;8.15;;;;;;;24.55;49.57;99397.56;5051596;28;20029;-51
2021/10/07 08:26:15;;;;;;;20.67;4.20;;;;;;;24.52;48.76;99402.41;5051535;28;20017;-51
2021/10/07 08:28:41;;;;;;;16.27;3.70;;;;;;;24.06;50.14;99393.69;5051344;28;20090;-52
2021/10/07 08:31:07;;;;;;;11.65;2.40;;;;;;;23.66;50.41;99389.94;5051474;28;20507;-50
2021/10/07 08:33:33;;;;;;;7.18;2.20;;;;;;;23.96;49.71;99397.19;5051493;28;20434;-51
2021/10/07 08:35:58;;;;;;;5.88;2.10;;;;;;;24.62;47.40;99396.19;5051489;28;20566;-51
2021/10/07 08:38:26;;;;;;;10.63;2.85;;;;;;;24.87;47.23;99395.28;5050142;28;20098;-51
2021/10/07 08:40:53;;;;;;;12.70;2.38;;;;;;;24.98;45.66;99379.09;5051353;28;20025;-51
2021/10/07 08:43:20;;;;;;;8.63;2.38;;;;;;;25.09;44.42;99368.03;5050083;28;20120;-51
2021/10/07 08:45:48;;;;;;;8.43;1.92;;;;;;;25.09;43.94;99370.69;5050116;28;20444;-51
2021/10/07 08:48:14;;;;;;;8.95;2.13;;;;;;;25.27;44.81;99371.13;5051424;28;20021;-52
2021/10/07 08:50:40;;;;;;;5.28;1.40;;;;;;;25.74;43.10;99366.19;5051752;28;20021;-51
2021/10/07 08:53:08;;;;;;;9.57;2.83;;;;;;;25.75;43.46;99363.19;5055240;28;20070;-51
2021/10/07 08:55:34;;;;;;;8.75;2.42;;;;;;;26.09;41.22;99355.06;5055228;28;20017;-50
2021/10/07 08:58:00;;;;;;;5.60;1.60;;;;;;;26.23;38.59;99362.44;5055171;28;20017;-51
2021/10/07 09:00:26;;;;;;;12.50;2.10;;;;;;;26.05;39.51;99364.00;5053740;28;20062;-51
2021/10/07 09:02:52;;;;;;;9.93;2.03;;;;;;;26.11;38.84;99357.47;5055057;28;20028;-51
2021/10/07 09:05:19;;;;;;;12.60;2.75;;;;;;;26.05;39.95;99350.53;5055014;28;20025;-51
2021/10/07 09:08:05;;;;;;;12.52;1.90;;;;;;;25.97;39.07;99357.34;5055007;28;20051;-51
2021/10/07 09:10:34;;;;;;;;;;;;;;;25.96;39.69;99360.31;5054077;28;20036;-51
2021/10/07 09:13:22;;;;;;;9.65;2.10;;;;;;;25.84;42.10;99371.44;5054879;28;19909;-51
2021/10/07 09:15:50;;;;;;;9.68;1.70;;;;;;;26.06;41.48;99363.72;5054904;28;20017;-51
2021/10/07 09:18:17;;;;;;;6.15;1.55;;;;;;;26.25;40.16;99360.25;5054801;28;20036;-51
2021/10/07 09:20:47;;;;;;;6.97;1.88;;;;;;;26.30;38.30;99352.94;5054672;28;20495;-51
2021/10/07 09:23:24;;;;;;;7.55;1.85;;;;;;;26.01;37.17;99353.00;5054710;28;20021;-51
2021/10/07 09:26:05;;;;;;;6.57;1.80;;;;;;;25.75;38.37;99351.63;5053360;28;20032;-51
2021/10/07 09:28:53;;;;;;;10.77;2.35;;;;;;;25.95;39.38;99351.44;5054642;28;20036;-51
2021/10/07 09:31:31;;;;;;;14.88;2.00;;;;;;;25.77;39.30;99347.56;5053240;28;20036;-51
2021/10/07 09:33:59;;;;;;;8.85;1.60;;;;;;;25.93;39.36;99339.38;5054472;28;20021;-51
2021/10/07 09:36:25;;;;;;;4.03;1.33;;;;;;;26.02;39.13;99341.16;5054414;28;20044;-51
2021/10/07 09:38:54;;;;;;;14.52;2.13;;;;;;;26.45;41.16;99345.75;5054421;28;20505;-51
2021/10/07 09:41:29;;;;;;;6.47;1.58;;;;;;;26.64;41.66;99345.78;5054335;28;20020;-51
2021/10/07 09:43:59;;;;;;;7.25;1.85;;;;;;;26.98;41.51;99339.38;5054319;28;20052;-51
2021/10/07 09:46:42;;;;;;;9.20;1.98;;;;;;;26.98;39.97;99326.69;5054332;28;20064;-50
2021/10/07 09:49:14;;;;;;;4.22;1.75;;;;;;;26.78;37.50;99325.13;5052917;28;20021;-50
2021/10/07 09:51:46;;;;;;;7.60;1.65;;;;;;;26.50;38.91;99324.97;5052859;28;20025;-51
2021/10/07 09:54:17;;;;;;;11.05;1.90;;;;;;;26.47;38.62;99322.03;5054197;28;20037;-51
2021/10/07 09:56:58;;;;;;;4.68;1.10;;;;;;;26.21;36.22;99310.81;5054112;28;20025;-51
2021/10/07 09:59:29;;;;;;;8.63;1.65;;;;;;;25.83;37.86;99316.84;5054032;28;20025;-51
2021/10/07 10:01:56;;;;;;;7.85;1.83;;;;;;;25.59;39.02;99306.06;5052346;28;20040;-51
2021/10/07 10:04:27;;;;;;;5.90;2.40;;;;;;;25.79;37.61;99299.69;5053957;28;20021;-51
2021/10/07 10:06:54;;;;;;;6.88;1.80;;;;;;;25.81;37.17;99291.34;5052534;28;20116;-51
2021/10/07 10:09:22;;;;;;;7.70;1.38;;;;;;;25.78;37.00;99298.09;5053793;28;20068;-51
2021/10/07 10:11:48;;;;;;;11.07;1.50;;;;;;;25.96;35.42;99298.44;5053784;28;20414;-51
2021/10/07 10:14:14;;;;;;;9.70;1.85;;;;;;;25.98;37.40;99304.34;5053678;28;20033;-51
2021/10/07 10:16:42;;;;;;;5.95;1.75;;;;;;;26.44;36.15;99298.38;5053709;28;20021;-51
2021/10/07 10:19:08;;;;;;;10.93;2.10;;;;;;;26.44;35.92;99287.63;5053594;28;20032;-51
2021/10/07 10:21:38;;;;;;;8.93;3.00;;;;;;;26.75;36.63;99284.53;5052315;28;20025;-51
2021/10/07 10:24:08;;;;;;;3.72;1.83;;;;;;;26.95;34.46;99269.94;5053602;28;20108;-51
2021/10/07 10:26:38;;;;;;;4.68;1.15;;;;;;;26.73;34.39;99279.44;5052224;28;20029;-51
2021/10/07 10:29:17;;;;;;;5.22;1.45;;;;;;;26.60;34.67;99296.31;5053246;28;21166;-51
2021/10/07 10:31:49;;;;;;;5.45;1.58;;;;;;;26.11;34.50;99257.91;5053442;28;20123;-51
2021/10/07 10:34:18;;;;;;;6.72;2.00;;;;;;;25.73;35.46;99268.56;5053656;28;20055;-51
2021/10/07 10:36:46;;;;;;;3.97;1.40;;;;;;;25.54;35.99;99270.41;5053326;28;20429;-51
2021/10/07 10:39:18;;;;;;;5.25;1.25;;;;;;;25.55;35.73;99283.53;5053253;28;20244;-51
2021/10/07 10:41:43;;;;;;;6.18;1.35;;;;;;;25.74;36.59;99278.25;5053202;28;20017;-50
2021/10/07 10:44:28;;;;;;;5.57;1.27;;;;;;;25.99;36.42;99260.22;5053188;28;20044;-50
2021/10/07 10:47:06;;;;;;;6.63;1.93;;;;;;;26.21;36.41;99270.44;5051785;28;20023;-51
2021/10/07 10:50:11;;;;;;;4.72;1.40;;;;;;;26.82;35.69;99266.91;5053117;28;20330;-51
2021/10/07 10:52:47;;;;;;;7.78;1.20;;;;;;;26.39;34.91;99248.13;5052525;28;20045;-51
2021/10/07 10:55:19;;;;;;;9.65;1.00;;;;;;;25.99;35.96;99261.03;5053020;28;20021;-51
2021/10/07 10:57:51;;;;;;;5.50;1.10;;;;;;;25.75;37.29;99269.06;5053014;28;20033;-51
2021/10/07 11:00:21;;;;;;;5.80;1.00;;;;;;;25.65;36.55;99253.84;5053108;28;20391;-51
2021/10/07 11:03:17;;;;;;;3.28;1.10;;;;;;;26.06;36.77;99249.94;5052822;28;20025;-51
2021/10/07 11:06:04;;;;;;;8.10;1.30;;;;;;;26.79;34.12;99245.16;5052930;28;20517;-51
2021/10/07 11:08:52;;;;;;;7.53;1.77;;;;;;;26.87;32.75;99245.25;5052720;28;20036;-50
2021/10/07 11:11:37;;;;;;;2.08;1.08;;;;;;;26.34;34.47;99248.22;5052699;28;20140;-51
2021/10/07 11:14:03;;;;;;;8.13;0.93;;;;;;;26.11;36.70;99263.31;5051034;28;20048;-51
2021/10/07 11:16:32;;;;;;;9.93;1.02;;;;;;;26.15;36.11;99248.19;5051285;28;20021;-51
2021/10/07 11:18:59;;;;;;;3.78;0.65;;;;;;;26.34;33.12;99201.63;5052473;28;20036;-51
2021/10/07 11:21:25;;;;;;;3.97;1.35;;;;;;;26.13;33.40;99236.91;5052469;28;20083;-50
2021/10/07 11:23:56;;;;;;;9.45;1.98;;;;;;;25.67;33.67;99224.00;5052391;28;20407;-50
2021/10/07 11:26:27;;;;;;;12.13;6.97;;;;;;;25.14;35.39;99240.94;5052603;28;20029;-51
2021/10/07 11:28:54;;;;;;;10.23;2.70;;;;;;;24.56;36.28;99246.22;5052151;28;20108;-51
2021/10/07 11:31:27;;;;;;;10.35;1.48;;;;;;;24.26;37.07;99234.56;5052460;28;20052;-51
2021/10/07 11:33:57;;;;;;;9.98;2.17;;;;;;;23.24;38.62;99249.91;5051054;28;20418;-50
2021/10/07 11:36:26;;;;;;;10.98;1.73;;;;;;;22.25;40.29;99230.53;5052263;28;20024;-50
2021/10/07 11:38:53;;;;;;;18.13;2.30;;;;;;;21.31;41.89;99249.03;5052241;28;20100;-51